createdAt,value
2022-07-28T00:01:01.932Z,18.78
2022-07-28T00:03:29.900Z,18.81
2022-07-28T00:05:59.164Z,18.71
2022-07-28T00:08:26.961Z,18.70
2022-07-28T00:10:54.742Z,18.68
2022-07-28T00:13:22.569Z,18.66
2022-07-28T00:15:50.575Z,18.60
2022-07-28T00:18:18.352Z,18.65
2022-07-28T00:20:46.123Z,18.56
2022-07-28T00:23:15.265Z,18.50
2022-07-28T00:25:43.171Z,18.48
2022-07-28T00:28:10.934Z,18.52
2022-07-28T00:30:38.749Z,18.52
2022-07-28T00:33:06.540Z,18.49
2022-07-28T00:35:34.384Z,18.51
2022-07-28T00:38:02.162Z,18.51
2022-07-28T00:40:45.212Z,18.46
2022-07-28T00:43:13.236Z,18.52
2022-07-28T00:45:41.173Z,18.49
2022-07-28T00:48:09.283Z,18.49
2022-07-28T00:50:40.034Z,18.44
2022-07-28T00:53:08.797Z,18.41
2022-07-28T00:56:02.726Z,18.38
2022-07-28T00:58:27.956Z,18.36
2022-07-28T01:00:56.053Z,18.32
2022-07-28T01:03:25.018Z,18.28
2022-07-28T01:06:12.433Z,18.27
2022-07-28T01:08:54.485Z,18.27
2022-07-28T01:11:42.763Z,18.27
2022-07-28T01:14:20.374Z,18.28
2022-07-28T01:16:53.143Z,18.31
2022-07-28T01:19:36.974Z,18.27
2022-07-28T01:22:06.901Z,18.24
2022-07-28T01:24:45.923Z,18.19
2022-07-28T01:27:27.831Z,18.18
2022-07-28T01:30:11.932Z,18.17
2022-07-28T01:32:45.301Z,18.12
2022-07-28T01:35:16.963Z,18.10
2022-07-28T01:37:47.156Z,17.91
2022-07-28T01:40:18.990Z,17.83
2022-07-28T01:42:52.567Z,17.81
2022-07-28T01:45:22.244Z,17.82
2022-07-28T01:47:54.229Z,17.81
2022-07-28T01:50:25.659Z,17.75
2022-07-28T01:52:55.179Z,17.66
2022-07-28T01:55:25.601Z,17.70
2022-07-28T01:57:56.633Z,17.65
2022-07-28T02:00:27.908Z,17.68
2022-07-28T02:02:59.261Z,17.64
2022-07-28T02:05:27.766Z,17.63
2022-07-28T02:07:57.035Z,17.48
2022-07-28T02:10:26.489Z,17.40
2022-07-28T02:12:56.411Z,17.42
2022-07-28T02:15:27.436Z,17.46
2022-07-28T02:17:57.581Z,17.48
2022-07-28T02:20:26.262Z,17.46
2022-07-28T02:22:54.979Z,17.40
2022-07-28T02:25:23.191Z,17.37
2022-07-28T02:27:57.033Z,17.40
2022-07-28T02:30:31.255Z,17.42
2022-07-28T02:33:04.739Z,17.42
2022-07-28T02:35:39.050Z,17.37
2022-07-28T02:38:10.454Z,17.31
2022-07-28T02:40:41.171Z,17.28
2022-07-28T02:43:12.080Z,17.20
2022-07-28T02:45:42.821Z,17.11
2022-07-28T02:48:16.108Z,17.19
2022-07-28T02:50:46.476Z,17.10
2022-07-28T02:53:16.227Z,17.11
2022-07-28T02:55:47.211Z,17.08
2022-07-28T02:58:16.283Z,17.04
2022-07-28T03:00:45.250Z,17.13
2022-07-28T03:03:15.970Z,17.04
2022-07-28T03:05:44.183Z,17.11
2022-07-28T03:08:12.475Z,17.06
2022-07-28T03:10:41.487Z,17.13
2022-07-28T03:13:09.249Z,17.07
2022-07-28T03:15:40.147Z,17.06
2022-07-28T03:18:08.425Z,17.06
2022-07-28T03:20:37.546Z,17.00
2022-07-28T03:23:05.574Z,16.95
2022-07-28T03:25:38.672Z,16.99
2022-07-28T03:28:09.121Z,16.99
2022-07-28T03:30:41.708Z,16.99
2022-07-28T03:33:09.707Z,16.99
2022-07-28T03:35:40.841Z,17.06
2022-07-28T03:38:12.989Z,17.04
2022-07-28T03:40:46.102Z,16.97
2022-07-28T03:43:15.726Z,17.03
2022-07-28T03:45:46.458Z,17.01
2022-07-28T03:48:15.504Z,16.96
2022-07-28T03:50:44.651Z,16.91
2022-07-28T03:53:20.523Z,16.94
2022-07-28T03:55:50.800Z,16.88
2022-07-28T03:58:18.821Z,16.90
2022-07-28T04:00:46.912Z,16.88
2022-07-28T04:03:22.644Z,16.82
2022-07-28T04:06:05.533Z,16.82
2022-07-28T04:08:33.379Z,16.87
2022-07-28T04:11:01.162Z,16.85
2022-07-28T04:13:28.897Z,16.86
2022-07-28T04:15:57.699Z,16.89
2022-07-28T04:18:25.455Z,16.95
2022-07-28T04:20:53.280Z,16.96
2022-07-28T04:23:24.009Z,16.93
2022-07-28T04:25:51.868Z,16.96
2022-07-28T04:28:19.629Z,16.99
2022-07-28T04:30:48.451Z,16.96
2022-07-28T04:33:18.528Z,16.99
2022-07-28T04:35:47.014Z,16.99
2022-07-28T04:38:15.059Z,17.03
2022-07-28T04:40:44.375Z,17.06
2022-07-28T04:43:12.230Z,17.13
2022-07-28T04:45:45.991Z,17.21
2022-07-28T04:48:22.473Z,17.21
2022-07-28T04:50:52.414Z,17.23
2022-07-28T04:53:20.447Z,17.25
2022-07-28T04:55:51.683Z,17.32
2022-07-28T04:58:24.047Z,17.33
2022-07-28T05:00:57.988Z,17.36
2022-07-28T05:03:26.012Z,17.37
2022-07-28T05:05:55.117Z,17.37
2022-07-28T05:08:25.981Z,17.42
2022-07-28T05:10:56.785Z,17.43
2022-07-28T05:13:28.968Z,17.45
2022-07-28T05:16:01.170Z,17.58
2022-07-28T05:18:29.287Z,17.60
2022-07-28T05:20:57.089Z,17.70
2022-07-28T05:23:24.838Z,17.78
2022-07-28T05:25:52.614Z,17.76
2022-07-28T05:28:21.804Z,17.74
2022-07-28T05:30:49.627Z,17.87
2022-07-28T05:33:17.698Z,17.87
2022-07-28T05:35:51.526Z,17.97
2022-07-28T05:38:19.428Z,18.03
2022-07-28T05:40:48.751Z,18.09
2022-07-28T05:43:16.865Z,18.20
2022-07-28T05:45:46.618Z,18.21
2022-07-28T05:48:14.458Z,18.25
2022-07-28T05:50:42.271Z,18.30
2022-07-28T05:53:10.119Z,18.30
2022-07-28T05:56:00.181Z,18.38
2022-07-28T05:58:26.297Z,18.43
2022-07-28T06:00:58.770Z,18.49
2022-07-28T06:03:26.659Z,18.52
2022-07-28T06:05:59.277Z,18.63
2022-07-28T06:08:43.112Z,18.71
2022-07-28T06:11:11.727Z,18.69
2022-07-28T06:13:40.667Z,18.77
2022-07-28T06:16:13.164Z,18.83
2022-07-28T06:18:43.899Z,18.89
2022-07-28T06:21:11.842Z,18.96
2022-07-28T06:23:39.891Z,18.98
2022-07-28T06:26:07.808Z,19.02
2022-07-28T06:28:35.616Z,19.07
2022-07-28T06:31:03.379Z,19.11
2022-07-28T06:33:32.541Z,19.16
2022-07-28T06:36:00.337Z,19.21
2022-07-28T06:38:28.242Z,19.21
2022-07-28T06:40:56.045Z,19.27
2022-07-28T06:43:23.827Z,19.30
2022-07-28T06:45:51.638Z,19.34
2022-07-28T06:48:20.129Z,19.43
2022-07-28T06:50:49.300Z,19.53
2022-07-28T06:53:17.159Z,19.58
2022-07-28T06:55:49.882Z,19.65
2022-07-28T06:58:17.948Z,19.66
2022-07-28T07:00:45.805Z,19.67
2022-07-28T07:03:13.556Z,19.84
2022-07-28T07:05:41.392Z,19.93
2022-07-28T07:08:10.509Z,19.99
2022-07-28T07:10:38.334Z,20.05
2022-07-28T07:13:06.208Z,20.14
2022-07-28T07:15:35.028Z,20.14
2022-07-28T07:18:03.031Z,20.25
2022-07-28T07:20:30.807Z,20.37
2022-07-28T07:22:58.731Z,20.43
2022-07-28T07:25:27.853Z,20.48
2022-07-28T07:27:55.622Z,20.55
2022-07-28T07:30:23.505Z,20.62
2022-07-28T07:32:51.444Z,20.75
2022-07-28T07:35:19.322Z,20.78
2022-07-28T07:37:47.146Z,20.88
2022-07-28T07:40:15.003Z,20.95
2022-07-28T07:42:44.126Z,21.08
2022-07-28T07:45:12.176Z,21.15
2022-07-28T07:47:40.863Z,21.26
2022-07-28T07:50:09.240Z,21.36
2022-07-28T07:52:37.218Z,21.44
2022-07-28T07:55:05.729Z,21.49
2022-07-28T07:57:33.494Z,21.52
2022-07-28T08:00:03.232Z,21.55
2022-07-28T08:02:32.096Z,21.64
2022-07-28T08:05:00.585Z,21.76
2022-07-28T08:07:28.557Z,21.86
2022-07-28T08:09:56.366Z,21.97
2022-07-28T08:12:24.551Z,22.11
2022-07-28T08:14:53.112Z,22.20
2022-07-28T08:17:25.906Z,22.27
2022-07-28T08:19:54.013Z,22.42
2022-07-28T08:22:22.105Z,22.56
2022-07-28T08:24:50.219Z,22.60
2022-07-28T08:27:18.161Z,22.75
2022-07-28T08:29:46.915Z,22.90
2022-07-28T08:32:14.663Z,22.99
2022-07-28T08:34:43.882Z,23.02
2022-07-28T08:37:12.176Z,23.15
2022-07-28T08:39:40.074Z,23.27
2022-07-28T08:42:13.217Z,23.43
2022-07-28T08:44:52.373Z,23.56
2022-07-28T08:47:21.329Z,23.67
2022-07-28T08:49:55.179Z,23.78
2022-07-28T08:52:25.828Z,23.85
2022-07-28T08:54:55.732Z,24.01
2022-07-28T08:57:29.637Z,24.11
2022-07-28T08:59:57.672Z,24.26
2022-07-28T09:02:27.030Z,24.36
2022-07-28T09:04:56.988Z,24.50
2022-07-28T09:07:25.054Z,24.65
2022-07-28T09:09:52.812Z,24.79
2022-07-28T09:12:26.712Z,24.97
2022-07-28T09:14:55.590Z,25.07
2022-07-28T09:17:23.382Z,25.24
2022-07-28T09:19:51.135Z,25.31
2022-07-28T09:22:20.246Z,25.43
2022-07-28T09:24:48.000Z,25.63
2022-07-28T09:27:16.518Z,25.77
2022-07-28T09:29:47.097Z,25.89
2022-07-28T09:32:15.980Z,26.06
2022-07-28T09:34:45.983Z,26.31
2022-07-28T09:37:27.071Z,26.52
2022-07-28T09:39:58.887Z,26.74
2022-07-28T09:42:27.570Z,26.90
2022-07-28T09:45:22.309Z,27.11
2022-07-28T09:48:10.063Z,27.41
2022-07-28T09:50:38.581Z,27.57
2022-07-28T09:53:27.544Z,27.78
2022-07-28T09:55:58.092Z,28.06
2022-07-28T09:58:26.799Z,28.18
2022-07-28T10:01:05.416Z,28.47
2022-07-28T10:03:36.451Z,28.63
2022-07-28T10:06:09.262Z,28.85
2022-07-28T10:08:43.416Z,28.97
2022-07-28T10:11:11.827Z,29.12
2022-07-28T10:13:56.475Z,29.31
2022-07-28T10:16:25.710Z,29.51
2022-07-28T10:18:53.875Z,29.74
2022-07-28T10:21:24.471Z,29.97
2022-07-28T10:23:55.759Z,30.17
2022-07-28T10:26:29.134Z,30.28
2022-07-28T10:28:57.667Z,30.33
2022-07-28T10:31:34.159Z,30.35
2022-07-28T10:34:03.230Z,30.57
2022-07-28T10:36:32.913Z,30.58
2022-07-28T10:39:05.370Z,30.41
2022-07-28T10:41:40.390Z,30.12
2022-07-28T10:44:09.876Z,30.09
2022-07-28T10:46:38.437Z,29.92
2022-07-28T10:49:08.997Z,29.95
2022-07-28T10:51:54.136Z,30.24
2022-07-28T10:54:31.886Z,30.43
2022-07-28T10:57:04.940Z,30.56
2022-07-28T11:00:13.203Z,30.39
2022-07-28T11:02:47.523Z,30.22
2022-07-28T11:05:34.908Z,30.41
2022-07-28T11:08:05.644Z,30.81
2022-07-28T11:10:46.598Z,31.09
2022-07-28T11:13:29.099Z,31.34
2022-07-28T11:15:58.231Z,31.87
2022-07-28T11:18:29.006Z,32.19
2022-07-28T11:21:10.829Z,32.29
2022-07-28T11:23:55.964Z,31.93
2022-07-28T11:26:46.019Z,31.43
2022-07-28T11:29:23.460Z,31.47
2022-07-28T11:32:05.185Z,31.74
2022-07-28T11:35:18.831Z,31.99
2022-07-28T11:38:12.769Z,32.31
2022-07-28T11:40:43.058Z,32.37
2022-07-28T11:43:37.306Z,32.44
2022-07-28T11:46:42.790Z,32.57
2022-07-28T11:49:36.241Z,32.63
2022-07-28T11:52:17.989Z,32.85
2022-07-28T11:54:55.740Z,33.24
2022-07-28T11:57:25.996Z,33.58
2022-07-28T11:59:58.349Z,33.70
2022-07-28T12:02:29.565Z,33.80
2022-07-28T12:05:10.850Z,33.74
2022-07-28T12:07:44.996Z,33.90
2022-07-28T12:10:53.937Z,33.95
2022-07-28T12:13:28.695Z,34.21
2022-07-28T12:15:58.025Z,34.49
2022-07-28T12:18:25.974Z,34.46
2022-07-28T12:20:54.723Z,34.59
2022-07-28T12:23:39.178Z,34.53
2022-07-28T12:26:31.347Z,34.76
2022-07-28T12:29:00.100Z,35.12
2022-07-28T12:31:33.108Z,35.03
2022-07-28T12:34:01.487Z,35.10
2022-07-28T12:36:29.980Z,35.05
2022-07-28T12:38:58.187Z,35.03
2022-07-28T12:41:33.085Z,35.14
2022-07-28T12:44:02.242Z,34.94
2022-07-28T12:46:35.118Z,35.05
2022-07-28T12:49:03.536Z,35.20
2022-07-28T12:51:33.365Z,35.54
2022-07-28T12:54:01.392Z,35.62
2022-07-28T12:56:29.638Z,35.57
2022-07-28T12:59:08.987Z,35.80
2022-07-28T13:01:49.313Z,35.98
2022-07-28T13:04:18.257Z,35.70
2022-07-28T13:06:56.414Z,35.60
2022-07-28T13:09:32.686Z,35.69
2022-07-28T13:12:02.966Z,35.78
2022-07-28T13:14:40.487Z,35.62
2022-07-28T13:17:09.608Z,35.82
2022-07-28T13:19:38.631Z,35.76
2022-07-28T13:22:09.172Z,35.90
2022-07-28T13:24:37.321Z,36.19
2022-07-28T13:27:06.833Z,36.51
2022-07-28T13:29:35.766Z,36.53
2022-07-28T13:32:03.758Z,36.25
2022-07-28T13:34:32.976Z,36.56
2022-07-28T13:37:00.905Z,36.58
2022-07-28T13:39:28.759Z,36.36
2022-07-28T13:41:59.100Z,36.34
2022-07-28T13:44:27.537Z,36.40
2022-07-28T13:46:55.667Z,35.89
2022-07-28T13:49:24.547Z,35.24
2022-07-28T13:51:54.040Z,35.57
2022-07-28T13:54:22.053Z,35.24
2022-07-28T13:57:01.806Z,35.32
2022-07-28T13:59:29.648Z,34.89
2022-07-28T14:01:57.713Z,34.69
2022-07-28T14:04:25.863Z,34.46
2022-07-28T14:06:55.820Z,34.33
2022-07-28T14:09:23.725Z,34.35
2022-07-28T14:11:53.257Z,34.15
2022-07-28T14:14:23.884Z,33.65
2022-07-28T14:16:54.480Z,33.51
2022-07-28T14:19:39.129Z,33.53
2022-07-28T14:22:13.304Z,33.98
2022-07-28T14:24:42.289Z,34.26
2022-07-28T14:27:10.893Z,34.43
2022-07-28T14:29:38.881Z,34.59
2022-07-28T14:32:07.017Z,34.95
2022-07-28T14:34:34.828Z,34.83
2022-07-28T14:37:04.850Z,34.99
2022-07-28T14:39:38.665Z,34.82
2022-07-28T14:42:06.838Z,34.83
2022-07-28T14:44:34.839Z,34.38
2022-07-28T14:47:05.956Z,33.85
2022-07-28T14:49:33.838Z,33.16
2022-07-28T14:52:01.623Z,32.94
2022-07-28T14:54:29.510Z,33.05
2022-07-28T14:56:58.636Z,32.97
2022-07-28T14:59:26.377Z,32.64
2022-07-28T15:01:54.243Z,32.49
2022-07-28T15:04:22.101Z,32.50
2022-07-28T15:06:49.847Z,32.68
2022-07-28T15:09:17.617Z,32.46
2022-07-28T15:11:47.204Z,32.41
2022-07-28T15:14:17.087Z,32.64
2022-07-28T15:16:49.340Z,32.57
2022-07-28T15:19:17.181Z,32.54
2022-07-28T15:21:47.279Z,32.70
2022-07-28T15:24:16.239Z,32.66
2022-07-28T15:26:44.399Z,32.67
2022-07-28T15:29:12.268Z,32.74
2022-07-28T15:31:45.360Z,32.65
2022-07-28T15:34:14.737Z,32.63
2022-07-28T15:36:42.725Z,32.54
2022-07-28T15:39:14.045Z,32.39
2022-07-28T15:41:43.014Z,32.14
2022-07-28T15:44:14.233Z,32.10
2022-07-28T15:46:46.529Z,32.08
2022-07-28T15:49:15.407Z,31.96
2022-07-28T15:51:43.215Z,31.98
2022-07-28T15:54:10.971Z,31.90
2022-07-28T15:56:38.752Z,31.82
2022-07-28T15:59:07.542Z,31.68
2022-07-28T16:01:35.762Z,31.58
2022-07-28T16:04:04.953Z,31.53
2022-07-28T16:06:46.649Z,31.44
2022-07-28T16:09:14.605Z,31.27
2022-07-28T16:11:42.460Z,31.31
2022-07-28T16:14:10.540Z,31.10
2022-07-28T16:16:39.178Z,31.06
2022-07-28T16:19:25.166Z,30.97
2022-07-28T16:21:57.266Z,30.85
2022-07-28T16:24:25.096Z,30.77
2022-07-28T16:26:52.923Z,30.74
2022-07-28T16:29:20.731Z,30.66
2022-07-28T16:31:48.504Z,30.61
2022-07-28T16:34:17.972Z,30.54
2022-07-28T16:36:46.263Z,30.43
2022-07-28T16:39:14.188Z,30.34
2022-07-28T16:41:45.231Z,30.26
2022-07-28T16:44:16.022Z,30.09
2022-07-28T16:46:44.177Z,30.12
2022-07-28T16:49:12.154Z,30.11
2022-07-28T16:51:41.334Z,30.08
2022-07-28T16:54:09.150Z,29.98
2022-07-28T16:56:36.885Z,29.83
2022-07-28T16:59:05.768Z,29.89
2022-07-28T17:01:33.641Z,29.76
2022-07-28T18:46:42.265Z,26.31
2022-07-28T18:49:10.174Z,26.16
2022-07-28T18:51:39.070Z,26.08
2022-07-28T18:54:13.093Z,26.02
2022-07-28T18:56:41.106Z,25.95
2022-07-28T18:59:08.898Z,25.88
2022-07-28T19:01:36.814Z,25.76
2022-07-28T19:04:06.232Z,25.71
2022-07-28T19:06:34.201Z,25.68
2022-07-28T19:09:02.027Z,25.65
2022-07-28T19:11:32.079Z,25.63
2022-07-28T19:14:00.091Z,25.58
2022-07-28T19:16:29.205Z,25.59
2022-07-28T19:18:57.018Z,25.51
2022-07-28T19:21:26.290Z,25.35
2022-07-28T19:23:54.111Z,25.31
2022-07-28T19:26:23.779Z,25.26
2022-07-28T19:28:52.204Z,25.21
2022-07-28T19:31:20.146Z,25.14
2022-07-28T19:33:48.163Z,25.14
2022-07-28T19:36:16.006Z,25.09
2022-07-28T19:38:45.128Z,25.13
2022-07-28T19:41:13.849Z,25.20
2022-07-28T19:43:42.147Z,25.19
2022-07-28T19:46:10.111Z,25.28
2022-07-28T19:48:38.399Z,25.23
2022-07-28T19:51:06.585Z,25.23
2022-07-28T19:53:35.850Z,25.16
2022-07-28T19:56:09.124Z,25.16
2022-07-28T19:58:37.368Z,25.12
2022-07-28T20:01:05.762Z,25.06
2022-07-28T20:04:01.576Z,24.97
2022-07-28T20:06:24.964Z,24.94
2022-07-28T20:08:53.905Z,24.99
2022-07-28T20:11:23.156Z,24.88
2022-07-28T20:13:51.043Z,24.74
2022-07-28T20:16:19.064Z,24.69
2022-07-28T20:18:46.967Z,24.63
2022-07-28T20:21:14.802Z,24.58
2022-07-28T20:23:42.577Z,24.50
2022-07-28T20:26:10.356Z,24.46
2022-07-28T20:28:39.484Z,24.57
2022-07-28T20:31:07.898Z,24.54
2022-07-28T20:33:35.817Z,24.44
2022-07-28T20:36:03.601Z,24.27
2022-07-28T20:38:31.329Z,24.01
2022-07-28T20:40:59.195Z,23.81
2022-07-28T20:43:37.118Z,23.70
2022-07-28T20:46:06.667Z,23.43
2022-07-28T20:48:35.004Z,23.22
2022-07-28T20:51:02.843Z,23.09
2022-07-28T20:53:30.613Z,23.05
2022-07-28T20:55:58.378Z,22.92
2022-07-28T20:58:28.227Z,22.81
2022-07-28T21:00:58.033Z,22.77
2022-07-28T21:03:27.361Z,22.75
2022-07-28T21:05:55.129Z,22.72
2022-07-28T21:08:23.005Z,22.66
2022-07-28T21:10:51.292Z,22.70
2022-07-28T21:13:19.180Z,22.63
2022-07-28T21:15:47.007Z,22.61
2022-07-28T21:18:15.313Z,22.54
2022-07-28T21:20:44.643Z,22.51
2022-07-28T21:23:12.382Z,22.50
2022-07-28T21:25:40.189Z,22.48
2022-07-28T21:28:30.246Z,22.50
2022-07-28T21:30:58.104Z,22.48
2022-07-28T21:33:25.889Z,22.53
2022-07-28T21:35:55.648Z,22.48
2022-07-28T21:38:23.522Z,22.41
2022-07-28T21:40:51.302Z,22.28
2022-07-28T21:43:19.053Z,22.12
2022-07-28T21:45:47.792Z,22.07
2022-07-28T21:48:19.030Z,21.97
2022-07-28T21:50:46.824Z,21.81
2022-07-28T21:53:17.387Z,21.64
2022-07-28T21:55:45.733Z,21.39
2022-07-28T21:58:13.588Z,21.18
2022-07-28T22:00:41.517Z,21.11
2022-07-28T22:03:09.480Z,20.91
2022-07-28T22:05:37.276Z,20.87
2022-07-28T22:08:05.476Z,20.77
2022-07-28T22:10:34.590Z,20.74
2022-07-28T22:13:02.355Z,20.64
2022-07-28T22:15:30.125Z,20.65
2022-07-28T22:17:57.865Z,20.64
2022-07-28T22:20:25.833Z,20.61
2022-07-28T22:22:55.108Z,20.70
2022-07-28T22:25:22.938Z,20.77
2022-07-28T22:27:52.049Z,20.67
2022-07-28T22:30:20.211Z,20.63
2022-07-28T22:32:48.008Z,20.66
2022-07-28T22:35:15.774Z,20.54
2022-07-28T22:37:44.646Z,20.37
2022-07-28T22:40:13.869Z,20.39
2022-07-28T22:42:41.612Z,20.37
2022-07-28T22:45:12.256Z,20.30
2022-07-28T22:47:39.993Z,20.37
2022-07-28T22:50:09.392Z,20.41
2022-07-28T22:52:37.251Z,20.39
2022-07-28T22:55:05.678Z,20.43
2022-07-28T22:57:33.511Z,20.60
2022-07-28T23:00:01.841Z,20.54
2022-07-28T23:02:31.115Z,20.53
2022-07-28T23:05:00.878Z,20.48
2022-07-28T23:07:50.848Z,20.46
2022-07-28T23:10:16.400Z,20.49
2022-07-28T23:12:44.138Z,20.50
2022-07-28T23:15:11.981Z,20.55
2022-07-28T23:17:41.124Z,20.44
2022-07-28T23:20:09.651Z,20.43
2022-07-28T23:22:37.925Z,20.50
2022-07-28T23:25:06.608Z,20.39
2022-07-28T23:27:34.360Z,20.29
2022-07-28T23:30:02.171Z,20.33
2022-07-28T23:32:29.939Z,20.30
2022-07-28T23:34:59.036Z,20.29
2022-07-28T23:37:26.797Z,20.29
2022-07-28T23:39:54.523Z,20.21
2022-07-28T23:42:22.516Z,20.08
2022-07-28T23:44:50.265Z,20.01
2022-07-28T23:47:18.140Z,20.08
2022-07-28T23:49:46.003Z,20.15
2022-07-28T23:52:15.198Z,20.15
2022-07-28T23:54:43.171Z,20.25
2022-07-28T23:57:11.468Z,20.27
2022-07-28T23:59:39.244Z,20.26
